sensor_id;sensor_type;location;lat;lon;timestamp;P1;durP1;ratioP1;P2;durP2;ratioP2
46158;SDS011;31888;44.512;26.104;2022-12-05T00:01:36;38.10;;;17.33;;
46158;SDS011;31888;44.512;26.104;2022-12-05T00:03:44;40.72;;;17.25;;
46158;SDS011;31888;44.512;26.104;2022-12-05T00:05:49;40.00;;;17.63;;
46158;SDS011;31888;44.512;26.104;2022-12-05T00:07:53;37.67;;;16.52;;
46158;SDS011;31888;44.512;26.104;2022-12-05T00:09:58;34.85;;;16.27;;
46158;SDS011;31888;44.512;26.104;2022-12-05T00:12:04;35.40;;;15.40;;
46158;SDS011;31888;44.512;26.104;2022-12-05T00:14:08;40.25;;;17.25;;
46158;SDS011;31888;44.512;26.104;2022-12-05T00:16:14;39.47;;;17.70;;
46158;SDS011;31888;44.512;26.104;2022-12-05T00:18:20;37.30;;;16.42;;
46158;SDS011;31888;44.512;26.104;2022-12-05T00:20:25;40.60;;;16.98;;
46158;SDS011;31888;44.512;26.104;2022-12-05T00:22:30;41.95;;;18.00;;
46158;SDS011;31888;44.512;26.104;2022-12-05T00:24:34;46.65;;;18.83;;
46158;SDS011;31888;44.512;26.104;2022-12-05T00:26:38;38.08;;;16.73;;
46158;SDS011;31888;44.512;26.104;2022-12-05T00:28:43;43.72;;;19.23;;
46158;SDS011;31888;44.512;26.104;2022-12-05T00:30:47;43.80;;;18.70;;
46158;SDS011;31888;44.512;26.104;2022-12-05T00:32:52;53.40;;;19.40;;
46158;SDS011;31888;44.512;26.104;2022-12-05T00:34:56;46.80;;;20.38;;
46158;SDS011;31888;44.512;26.104;2022-12-05T00:37:02;49.58;;;22.40;;
46158;SDS011;31888;44.512;26.104;2022-12-05T00:39:07;51.30;;;20.80;;
46158;SDS011;31888;44.512;26.104;2022-12-05T00:41:13;46.40;;;20.88;;
46158;SDS011;31888;44.512;26.104;2022-12-05T00:43:20;50.92;;;21.48;;
46158;SDS011;31888;44.512;26.104;2022-12-05T00:45:24;52.28;;;21.67;;
46158;SDS011;31888;44.512;26.104;2022-12-05T00:47:29;56.35;;;23.05;;
46158;SDS011;31888;44.512;26.104;2022-12-05T00:49:36;46.58;;;20.10;;
46158;SDS011;31888;44.512;26.104;2022-12-05T00:51:41;52.10;;;21.85;;
46158;SDS011;31888;44.512;26.104;2022-12-05T00:53:47;48.05;;;19.05;;
46158;SDS011;31888;44.512;26.104;2022-12-05T00:55:52;44.88;;;19.65;;
46158;SDS011;31888;44.512;26.104;2022-12-05T00:57:56;54.90;;;20.73;;
46158;SDS011;31888;44.512;26.104;2022-12-05T01:00:00;48.22;;;19.63;;
46158;SDS011;31888;44.512;26.104;2022-12-05T01:02:05;49.03;;;21.40;;
46158;SDS011;31888;44.512;26.104;2022-12-05T01:04:10;51.35;;;19.88;;
46158;SDS011;31888;44.512;26.104;2022-12-05T01:06:16;51.42;;;20.75;;
46158;SDS011;31888;44.512;26.104;2022-12-05T01:08:20;53.10;;;21.88;;
46158;SDS011;31888;44.512;26.104;2022-12-05T01:10:26;54.22;;;21.92;;
46158;SDS011;31888;44.512;26.104;2022-12-05T01:12:30;53.10;;;21.95;;
46158;SDS011;31888;44.512;26.104;2022-12-05T01:14:34;54.40;;;21.90;;
46158;SDS011;31888;44.512;26.104;2022-12-05T01:16:39;51.05;;;22.27;;
46158;SDS011;31888;44.512;26.104;2022-12-05T01:18:45;54.22;;;21.42;;
46158;SDS011;31888;44.512;26.104;2022-12-05T01:20:50;47.05;;;19.92;;
46158;SDS011;31888;44.512;26.104;2022-12-05T01:22:55;42.75;;;19.05;;
46158;SDS011;31888;44.512;26.104;2022-12-05T01:25:19;48.45;;;19.92;;
46158;SDS011;31888;44.512;26.104;2022-12-05T01:27:24;42.35;;;18.58;;
46158;SDS011;31888;44.512;26.104;2022-12-05T01:29:29;40.60;;;17.58;;
46158;SDS011;31888;44.512;26.104;2022-12-05T01:31:34;38.05;;;17.20;;
46158;SDS011;31888;44.512;26.104;2022-12-05T01:33:39;39.38;;;18.42;;
46158;SDS011;31888;44.512;26.104;2022-12-05T01:35:44;47.63;;;19.02;;
46158;SDS011;31888;44.512;26.104;2022-12-05T01:37:48;38.78;;;16.92;;
46158;SDS011;31888;44.512;26.104;2022-12-05T01:39:53;45.72;;;18.00;;
46158;SDS011;31888;44.512;26.104;2022-12-05T01:42:00;47.03;;;18.25;;
46158;SDS011;31888;44.512;26.104;2022-12-05T01:44:06;39.08;;;16.63;;
46158;SDS011;31888;44.512;26.104;2022-12-05T01:46:31;39.47;;;17.05;;
46158;SDS011;31888;44.512;26.104;2022-12-05T01:48:37;38.72;;;16.88;;
46158;SDS011;31888;44.512;26.104;2022-12-05T01:50:41;39.53;;;18.17;;
46158;SDS011;31888;44.512;26.104;2022-12-05T01:52:46;44.20;;;18.60;;
46158;SDS011;31888;44.512;26.104;2022-12-05T01:54:51;47.65;;;18.65;;
46158;SDS011;31888;44.512;26.104;2022-12-05T01:57:05;41.38;;;17.52;;
46158;SDS011;31888;44.512;26.104;2022-12-05T01:59:14;44.70;;;18.58;;
46158;SDS011;31888;44.512;26.104;2022-12-05T02:01:20;46.05;;;19.48;;
46158;SDS011;31888;44.512;26.104;2022-12-05T02:03:25;49.55;;;19.92;;
46158;SDS011;31888;44.512;26.104;2022-12-05T02:05:30;48.10;;;18.88;;
46158;SDS011;31888;44.512;26.104;2022-12-05T02:07:36;42.67;;;18.80;;
46158;SDS011;31888;44.512;26.104;2022-12-05T02:09:44;41.15;;;18.33;;
46158;SDS011;31888;44.512;26.104;2022-12-05T02:11:52;44.67;;;19.42;;
46158;SDS011;31888;44.512;26.104;2022-12-05T02:14:02;44.17;;;20.23;;
46158;SDS011;31888;44.512;26.104;2022-12-05T02:16:29;42.03;;;19.85;;
46158;SDS011;31888;44.512;26.104;2022-12-05T02:18:51;44.97;;;19.70;;
46158;SDS011;31888;44.512;26.104;2022-12-05T02:23:49;42.78;;;17.58;;
46158;SDS011;31888;44.512;26.104;2022-12-05T02:26:12;42.47;;;18.73;;
46158;SDS011;31888;44.512;26.104;2022-12-05T02:28:57;37.03;;;15.63;;
46158;SDS011;31888;44.512;26.104;2022-12-05T02:31:15;47.13;;;20.55;;
46158;SDS011;31888;44.512;26.104;2022-12-05T02:33:25;48.13;;;20.00;;
46158;SDS011;31888;44.512;26.104;2022-12-05T02:35:40;41.60;;;18.63;;
46158;SDS011;31888;44.512;26.104;2022-12-05T02:37:51;44.70;;;18.02;;
46158;SDS011;31888;44.512;26.104;2022-12-05T02:40:02;46.53;;;19.58;;
46158;SDS011;31888;44.512;26.104;2022-12-05T02:42:14;50.13;;;19.48;;
46158;SDS011;31888;44.512;26.104;2022-12-05T02:44:26;50.95;;;18.63;;
46158;SDS011;31888;44.512;26.104;2022-12-05T02:46:37;45.47;;;19.98;;
46158;SDS011;31888;44.512;26.104;2022-12-05T02:48:43;44.78;;;20.08;;
46158;SDS011;31888;44.512;26.104;2022-12-05T02:50:53;46.92;;;20.20;;
46158;SDS011;31888;44.512;26.104;2022-12-05T02:53:03;48.85;;;20.67;;
46158;SDS011;31888;44.512;26.104;2022-12-05T02:55:10;50.63;;;21.15;;
46158;SDS011;31888;44.512;26.104;2022-12-05T02:57:16;56.33;;;20.83;;
46158;SDS011;31888;44.512;26.104;2022-12-05T02:59:23;49.42;;;19.90;;
46158;SDS011;31888;44.512;26.104;2022-12-05T03:01:27;51.47;;;20.70;;
46158;SDS011;31888;44.512;26.104;2022-12-05T03:03:35;46.42;;;19.63;;
46158;SDS011;31888;44.512;26.104;2022-12-05T03:05:40;52.00;;;23.08;;
46158;SDS011;31888;44.512;26.104;2022-12-05T03:07:49;51.83;;;20.10;;
46158;SDS011;31888;44.512;26.104;2022-12-05T03:09:57;46.90;;;19.73;;
46158;SDS011;31888;44.512;26.104;2022-12-05T03:12:06;54.25;;;21.40;;
46158;SDS011;31888;44.512;26.104;2022-12-05T03:14:16;53.53;;;21.13;;
46158;SDS011;31888;44.512;26.104;2022-12-05T03:16:25;57.10;;;24.48;;
46158;SDS011;31888;44.512;26.104;2022-12-05T03:18:36;59.78;;;21.98;;
46158;SDS011;31888;44.512;26.104;2022-12-05T03:20:43;55.90;;;22.67;;
46158;SDS011;31888;44.512;26.104;2022-12-05T03:22:52;53.28;;;23.00;;
46158;SDS011;31888;44.512;26.104;2022-12-05T03:25:00;53.92;;;22.63;;
46158;SDS011;31888;44.512;26.104;2022-12-05T03:27:08;54.60;;;22.35;;
46158;SDS011;31888;44.512;26.104;2022-12-05T03:29:25;52.45;;;21.95;;
46158;SDS011;31888;44.512;26.104;2022-12-05T03:31:37;51.80;;;21.77;;
46158;SDS011;31888;44.512;26.104;2022-12-05T03:33:46;55.13;;;22.90;;
46158;SDS011;31888;44.512;26.104;2022-12-05T03:35:56;52.85;;;21.05;;
46158;SDS011;31888;44.512;26.104;2022-12-05T03:38:06;57.08;;;21.67;;
46158;SDS011;31888;44.512;26.104;2022-12-05T03:40:18;50.58;;;20.60;;
46158;SDS011;31888;44.512;26.104;2022-12-05T03:42:35;46.10;;;19.83;;
46158;SDS011;31888;44.512;26.104;2022-12-05T03:44:46;52.30;;;21.85;;
46158;SDS011;31888;44.512;26.104;2022-12-05T03:46:55;50.67;;;20.80;;
46158;SDS011;31888;44.512;26.104;2022-12-05T03:49:06;49.65;;;21.17;;
46158;SDS011;31888;44.512;26.104;2022-12-05T03:51:15;47.38;;;20.77;;
46158;SDS011;31888;44.512;26.104;2022-12-05T03:53:23;49.23;;;20.63;;
46158;SDS011;31888;44.512;26.104;2022-12-05T03:55:31;46.55;;;20.08;;
46158;SDS011;31888;44.512;26.104;2022-12-05T03:57:40;47.95;;;18.90;;
46158;SDS011;31888;44.512;26.104;2022-12-05T03:59:50;52.25;;;22.00;;
46158;SDS011;31888;44.512;26.104;2022-12-05T04:01:59;60.92;;;24.98;;
46158;SDS011;31888;44.512;26.104;2022-12-05T04:04:11;32.50;;;12.77;;
46158;SDS011;31888;44.512;26.104;2022-12-05T04:06:20;41.30;;;17.63;;
46158;SDS011;31888;44.512;26.104;2022-12-05T04:08:31;38.45;;;15.68;;
46158;SDS011;31888;44.512;26.104;2022-12-05T04:10:39;41.28;;;16.60;;
46158;SDS011;31888;44.512;26.104;2022-12-05T04:12:51;45.00;;;17.63;;
46158;SDS011;31888;44.512;26.104;2022-12-05T04:14:58;50.75;;;20.85;;
46158;SDS011;31888;44.512;26.104;2022-12-05T04:17:08;49.55;;;19.58;;
46158;SDS011;31888;44.512;26.104;2022-12-05T04:19:20;42.50;;;17.55;;
46158;SDS011;31888;44.512;26.104;2022-12-05T04:23:39;53.03;;;19.98;;
46158;SDS011;31888;44.512;26.104;2022-12-05T04:25:50;49.17;;;18.73;;
46158;SDS011;31888;44.512;26.104;2022-12-05T04:28:10;44.10;;;18.20;;
46158;SDS011;31888;44.512;26.104;2022-12-05T04:30:23;38.42;;;16.45;;
46158;SDS011;31888;44.512;26.104;2022-12-05T04:32:29;49.08;;;19.35;;
46158;SDS011;31888;44.512;26.104;2022-12-05T04:34:41;42.83;;;16.70;;
46158;SDS011;31888;44.512;26.104;2022-12-05T04:36:54;48.13;;;19.05;;
46158;SDS011;31888;44.512;26.104;2022-12-05T04:39:02;53.10;;;19.52;;
46158;SDS011;31888;44.512;26.104;2022-12-05T04:41:16;60.00;;;22.25;;
46158;SDS011;31888;44.512;26.104;2022-12-05T04:43:24;47.97;;;18.73;;
46158;SDS011;31888;44.512;26.104;2022-12-05T04:45:31;42.97;;;19.48;;
46158;SDS011;31888;44.512;26.104;2022-12-05T04:47:38;39.75;;;16.13;;
46158;SDS011;31888;44.512;26.104;2022-12-05T04:49:47;52.67;;;21.10;;
46158;SDS011;31888;44.512;26.104;2022-12-05T04:51:55;42.03;;;16.92;;
46158;SDS011;31888;44.512;26.104;2022-12-05T04:54:04;44.47;;;17.30;;
46158;SDS011;31888;44.512;26.104;2022-12-05T04:56:15;43.25;;;18.45;;
46158;SDS011;31888;44.512;26.104;2022-12-05T04:58:23;46.70;;;17.77;;
46158;SDS011;31888;44.512;26.104;2022-12-05T05:00:29;47.42;;;16.30;;
46158;SDS011;31888;44.512;26.104;2022-12-05T05:02:39;47.53;;;18.98;;
46158;SDS011;31888;44.512;26.104;2022-12-05T05:06:57;59.83;;;22.10;;
46158;SDS011;31888;44.512;26.104;2022-12-05T05:09:02;49.90;;;18.88;;
46158;SDS011;31888;44.512;26.104;2022-12-05T05:11:08;49.15;;;19.33;;
46158;SDS011;31888;44.512;26.104;2022-12-05T05:13:16;46.95;;;18.33;;
46158;SDS011;31888;44.512;26.104;2022-12-05T05:15:20;50.63;;;19.42;;
46158;SDS011;31888;44.512;26.104;2022-12-05T05:17:24;66.55;;;25.02;;
46158;SDS011;31888;44.512;26.104;2022-12-05T05:19:28;43.15;;;17.80;;
46158;SDS011;31888;44.512;26.104;2022-12-05T05:21:35;48.85;;;17.98;;
46158;SDS011;31888;44.512;26.104;2022-12-05T05:23:40;41.05;;;17.52;;
46158;SDS011;31888;44.512;26.104;2022-12-05T05:25:45;43.60;;;15.77;;
46158;SDS011;31888;44.512;26.104;2022-12-05T05:27:55;36.30;;;16.02;;
46158;SDS011;31888;44.512;26.104;2022-12-05T05:29:59;40.15;;;16.70;;
46158;SDS011;31888;44.512;26.104;2022-12-05T05:32:03;44.40;;;18.70;;
46158;SDS011;31888;44.512;26.104;2022-12-05T05:34:08;41.88;;;19.08;;
46158;SDS011;31888;44.512;26.104;2022-12-05T05:36:13;48.00;;;17.83;;
46158;SDS011;31888;44.512;26.104;2022-12-05T05:38:20;46.22;;;17.15;;
46158;SDS011;31888;44.512;26.104;2022-12-05T05:40:24;62.58;;;23.40;;
46158;SDS011;31888;44.512;26.104;2022-12-05T05:42:28;52.70;;;20.77;;
46158;SDS011;31888;44.512;26.104;2022-12-05T05:44:33;51.22;;;21.27;;
46158;SDS011;31888;44.512;26.104;2022-12-05T05:46:37;54.90;;;21.20;;
46158;SDS011;31888;44.512;26.104;2022-12-05T05:48:41;55.38;;;19.05;;
46158;SDS011;31888;44.512;26.104;2022-12-05T05:50:46;59.83;;;22.80;;
46158;SDS011;31888;44.512;26.104;2022-12-05T05:52:50;60.33;;;21.92;;
46158;SDS011;31888;44.512;26.104;2022-12-05T05:54:56;56.92;;;22.15;;
46158;SDS011;31888;44.512;26.104;2022-12-05T05:57:01;53.08;;;19.90;;
46158;SDS011;31888;44.512;26.104;2022-12-05T05:59:05;49.00;;;20.30;;
46158;SDS011;31888;44.512;26.104;2022-12-05T06:01:11;44.60;;;19.45;;
46158;SDS011;31888;44.512;26.104;2022-12-05T06:03:16;44.10;;;18.77;;
46158;SDS011;31888;44.512;26.104;2022-12-05T06:05:20;46.42;;;19.23;;
46158;SDS011;31888;44.512;26.104;2022-12-05T06:07:25;44.15;;;18.50;;
46158;SDS011;31888;44.512;26.104;2022-12-05T06:09:30;45.55;;;18.33;;
46158;SDS011;31888;44.512;26.104;2022-12-05T06:11:36;40.05;;;17.48;;
46158;SDS011;31888;44.512;26.104;2022-12-05T06:13:40;41.35;;;16.90;;
46158;SDS011;31888;44.512;26.104;2022-12-05T06:15:45;41.20;;;17.35;;
46158;SDS011;31888;44.512;26.104;2022-12-05T06:17:49;43.22;;;17.35;;
46158;SDS011;31888;44.512;26.104;2022-12-05T06:19:53;44.85;;;18.98;;
46158;SDS011;31888;44.512;26.104;2022-12-05T06:21:58;48.35;;;18.98;;
46158;SDS011;31888;44.512;26.104;2022-12-05T06:24:03;64.72;;;21.35;;
46158;SDS011;31888;44.512;26.104;2022-12-05T06:26:09;49.75;;;21.65;;
46158;SDS011;31888;44.512;26.104;2022-12-05T06:28:15;60.35;;;25.35;;
46158;SDS011;31888;44.512;26.104;2022-12-05T06:30:23;55.03;;;23.83;;
46158;SDS011;31888;44.512;26.104;2022-12-05T06:32:27;56.20;;;23.90;;
46158;SDS011;31888;44.512;26.104;2022-12-05T06:34:32;59.35;;;23.83;;
46158;SDS011;31888;44.512;26.104;2022-12-05T06:36:37;46.72;;;18.38;;
46158;SDS011;31888;44.512;26.104;2022-12-05T06:38:41;51.08;;;20.50;;
46158;SDS011;31888;44.512;26.104;2022-12-05T06:40:46;43.70;;;18.15;;
46158;SDS011;31888;44.512;26.104;2022-12-05T06:42:51;46.88;;;19.73;;
46158;SDS011;31888;44.512;26.104;2022-12-05T06:44:57;46.33;;;21.10;;
46158;SDS011;31888;44.512;26.104;2022-12-05T06:47:04;45.38;;;18.88;;
46158;SDS011;31888;44.512;26.104;2022-12-05T06:49:08;51.13;;;19.35;;
46158;SDS011;31888;44.512;26.104;2022-12-05T06:51:14;46.20;;;20.70;;
46158;SDS011;31888;44.512;26.104;2022-12-05T06:53:19;43.42;;;17.83;;
46158;SDS011;31888;44.512;26.104;2022-12-05T06:55:23;49.15;;;20.13;;
46158;SDS011;31888;44.512;26.104;2022-12-05T06:57:28;50.05;;;19.45;;
46158;SDS011;31888;44.512;26.104;2022-12-05T06:59:32;38.45;;;18.02;;
46158;SDS011;31888;44.512;26.104;2022-12-05T07:01:37;55.17;;;23.17;;
46158;SDS011;31888;44.512;26.104;2022-12-05T07:03:42;45.90;;;20.27;;
46158;SDS011;31888;44.512;26.104;2022-12-05T07:05:46;40.50;;;18.98;;
46158;SDS011;31888;44.512;26.104;2022-12-05T07:07:51;44.13;;;17.92;;
46158;SDS011;31888;44.512;26.104;2022-12-05T07:09:55;44.00;;;19.17;;
46158;SDS011;31888;44.512;26.104;2022-12-05T07:12:00;41.33;;;18.20;;
46158;SDS011;31888;44.512;26.104;2022-12-05T07:14:04;37.17;;;16.90;;
46158;SDS011;31888;44.512;26.104;2022-12-05T07:16:26;44.08;;;17.80;;
46158;SDS011;31888;44.512;26.104;2022-12-05T07:18:31;39.75;;;16.17;;
46158;SDS011;31888;44.512;26.104;2022-12-05T07:20:36;41.17;;;16.83;;
46158;SDS011;31888;44.512;26.104;2022-12-05T07:23:00;40.20;;;18.52;;
46158;SDS011;31888;44.512;26.104;2022-12-05T07:25:05;45.35;;;17.80;;
46158;SDS011;31888;44.512;26.104;2022-12-05T07:27:09;36.05;;;15.90;;
46158;SDS011;31888;44.512;26.104;2022-12-05T07:29:14;43.45;;;18.90;;
46158;SDS011;31888;44.512;26.104;2022-12-05T07:31:19;45.42;;;19.48;;
46158;SDS011;31888;44.512;26.104;2022-12-05T07:33:25;38.22;;;16.80;;
46158;SDS011;31888;44.512;26.104;2022-12-05T07:35:31;46.42;;;20.48;;
46158;SDS011;31888;44.512;26.104;2022-12-05T07:37:36;49.50;;;18.73;;
46158;SDS011;31888;44.512;26.104;2022-12-05T07:39:41;45.88;;;18.63;;
46158;SDS011;31888;44.512;26.104;2022-12-05T07:41:45;45.42;;;18.55;;
46158;SDS011;31888;44.512;26.104;2022-12-05T07:43:51;42.00;;;17.95;;
46158;SDS011;31888;44.512;26.104;2022-12-05T07:46:00;38.13;;;17.25;;
46158;SDS011;31888;44.512;26.104;2022-12-05T07:48:05;33.78;;;15.68;;
46158;SDS011;31888;44.512;26.104;2022-12-05T07:50:10;33.42;;;14.00;;
46158;SDS011;31888;44.512;26.104;2022-12-05T07:52:16;33.63;;;14.85;;
46158;SDS011;31888;44.512;26.104;2022-12-05T07:54:22;29.60;;;14.07;;
46158;SDS011;31888;44.512;26.104;2022-12-05T07:56:27;26.42;;;12.23;;
46158;SDS011;31888;44.512;26.104;2022-12-05T07:58:31;31.23;;;13.82;;
46158;SDS011;31888;44.512;26.104;2022-12-05T08:00:36;30.73;;;14.15;;
46158;SDS011;31888;44.512;26.104;2022-12-05T08:02:40;27.67;;;13.38;;
46158;SDS011;31888;44.512;26.104;2022-12-05T08:04:45;30.48;;;13.90;;
46158;SDS011;31888;44.512;26.104;2022-12-05T08:06:49;27.77;;;12.90;;
46158;SDS011;31888;44.512;26.104;2022-12-05T08:08:54;28.33;;;12.98;;
46158;SDS011;31888;44.512;26.104;2022-12-05T08:11:01;26.42;;;12.77;;
46158;SDS011;31888;44.512;26.104;2022-12-05T08:13:06;25.52;;;12.57;;
46158;SDS011;31888;44.512;26.104;2022-12-05T08:15:10;32.10;;;13.80;;
46158;SDS011;31888;44.512;26.104;2022-12-05T08:17:15;24.33;;;12.25;;
46158;SDS011;31888;44.512;26.104;2022-12-05T08:19:19;25.75;;;12.32;;
46158;SDS011;31888;44.512;26.104;2022-12-05T08:21:24;24.05;;;11.48;;
46158;SDS011;31888;44.512;26.104;2022-12-05T08:23:28;29.75;;;14.45;;
46158;SDS011;31888;44.512;26.104;2022-12-05T08:25:35;27.77;;;13.10;;
46158;SDS011;31888;44.512;26.104;2022-12-05T08:27:39;29.63;;;14.43;;
46158;SDS011;31888;44.512;26.104;2022-12-05T08:29:43;34.78;;;14.10;;
46158;SDS011;31888;44.512;26.104;2022-12-05T08:31:49;29.42;;;14.10;;
46158;SDS011;31888;44.512;26.104;2022-12-05T08:33:55;29.50;;;14.00;;
46158;SDS011;31888;44.512;26.104;2022-12-05T08:36:01;27.15;;;12.65;;
46158;SDS011;31888;44.512;26.104;2022-12-05T08:38:06;34.38;;;15.55;;
46158;SDS011;31888;44.512;26.104;2022-12-05T08:40:10;28.92;;;13.25;;
46158;SDS011;31888;44.512;26.104;2022-12-05T08:42:16;28.02;;;13.52;;
46158;SDS011;31888;44.512;26.104;2022-12-05T08:44:20;30.63;;;14.20;;
46158;SDS011;31888;44.512;26.104;2022-12-05T08:46:24;36.75;;;15.18;;
46158;SDS011;31888;44.512;26.104;2022-12-05T08:48:29;34.80;;;16.20;;
46158;SDS011;31888;44.512;26.104;2022-12-05T08:50:34;36.70;;;16.30;;
46158;SDS011;31888;44.512;26.104;2022-12-05T08:52:41;32.53;;;15.32;;
46158;SDS011;31888;44.512;26.104;2022-12-05T08:54:45;30.95;;;14.38;;
46158;SDS011;31888;44.512;26.104;2022-12-05T08:56:49;35.40;;;14.95;;
46158;SDS011;31888;44.512;26.104;2022-12-05T08:58:55;30.35;;;15.07;;
46158;SDS011;31888;44.512;26.104;2022-12-05T09:01:07;32.63;;;15.50;;
46158;SDS011;31888;44.512;26.104;2022-12-05T09:03:13;28.27;;;14.30;;
46158;SDS011;31888;44.512;26.104;2022-12-05T09:05:18;31.63;;;16.80;;
46158;SDS011;31888;44.512;26.104;2022-12-05T09:07:30;31.55;;;14.98;;
46158;SDS011;31888;44.512;26.104;2022-12-05T09:09:34;40.15;;;18.55;;
46158;SDS011;31888;44.512;26.104;2022-12-05T09:11:39;36.40;;;16.58;;
46158;SDS011;31888;44.512;26.104;2022-12-05T09:13:48;38.55;;;16.05;;
46158;SDS011;31888;44.512;26.104;2022-12-05T09:15:54;34.33;;;16.02;;
46158;SDS011;31888;44.512;26.104;2022-12-05T09:17:59;33.67;;;15.15;;
46158;SDS011;31888;44.512;26.104;2022-12-05T09:20:04;30.13;;;15.00;;
46158;SDS011;31888;44.512;26.104;2022-12-05T09:22:10;34.17;;;16.88;;
46158;SDS011;31888;44.512;26.104;2022-12-05T09:24:14;35.88;;;16.63;;
46158;SDS011;31888;44.512;26.104;2022-12-05T09:26:20;35.58;;;16.83;;
46158;SDS011;31888;44.512;26.104;2022-12-05T09:28:26;35.25;;;16.45;;
46158;SDS011;31888;44.512;26.104;2022-12-05T09:30:30;37.33;;;17.33;;
46158;SDS011;31888;44.512;26.104;2022-12-05T09:32:36;37.17;;;17.50;;
46158;SDS011;31888;44.512;26.104;2022-12-05T09:34:40;36.92;;;17.08;;
46158;SDS011;31888;44.512;26.104;2022-12-05T09:36:44;36.38;;;16.98;;
46158;SDS011;31888;44.512;26.104;2022-12-05T09:39:03;38.08;;;17.23;;
46158;SDS011;31888;44.512;26.104;2022-12-05T09:41:15;30.85;;;15.27;;
46158;SDS011;31888;44.512;26.104;2022-12-05T09:43:50;31.75;;;15.45;;
46158;SDS011;31888;44.512;26.104;2022-12-05T09:46:01;35.20;;;16.83;;
46158;SDS011;31888;44.512;26.104;2022-12-05T09:48:14;34.50;;;17.38;;
46158;SDS011;31888;44.512;26.104;2022-12-05T09:52:27;38.42;;;16.92;;
46158;SDS011;31888;44.512;26.104;2022-12-05T09:54:33;36.95;;;16.23;;
46158;SDS011;31888;44.512;26.104;2022-12-05T09:56:45;30.98;;;16.70;;
46158;SDS011;31888;44.512;26.104;2022-12-05T09:58:53;35.22;;;17.08;;
46158;SDS011;31888;44.512;26.104;2022-12-05T10:01:01;36.40;;;17.42;;
46158;SDS011;31888;44.512;26.104;2022-12-05T10:03:11;34.45;;;16.65;;
46158;SDS011;31888;44.512;26.104;2022-12-05T10:05:28;36.45;;;17.85;;
46158;SDS011;31888;44.512;26.104;2022-12-05T10:07:43;47.33;;;19.52;;
46158;SDS011;31888;44.512;26.104;2022-12-05T10:09:57;40.35;;;17.50;;
46158;SDS011;31888;44.512;26.104;2022-12-05T10:12:12;37.05;;;17.05;;
46158;SDS011;31888;44.512;26.104;2022-12-05T10:14:27;36.33;;;17.27;;
46158;SDS011;31888;44.512;26.104;2022-12-05T10:16:45;34.95;;;16.23;;
46158;SDS011;31888;44.512;26.104;2022-12-05T10:18:54;36.80;;;16.50;;
46158;SDS011;31888;44.512;26.104;2022-12-05T10:21:03;35.00;;;16.17;;
46158;SDS011;31888;44.512;26.104;2022-12-05T10:23:16;35.38;;;16.50;;
46158;SDS011;31888;44.512;26.104;2022-12-05T10:25:43;36.22;;;16.83;;
46158;SDS011;31888;44.512;26.104;2022-12-05T10:27:48;31.50;;;16.13;;
46158;SDS011;31888;44.512;26.104;2022-12-05T10:29:56;28.77;;;15.27;;
46158;SDS011;31888;44.512;26.104;2022-12-05T10:32:04;36.88;;;16.88;;
46158;SDS011;31888;44.512;26.104;2022-12-05T10:34:17;34.80;;;15.05;;
46158;SDS011;31888;44.512;26.104;2022-12-05T10:36:30;34.50;;;16.05;;
46158;SDS011;31888;44.512;26.104;2022-12-05T10:38:35;32.22;;;14.68;;
46158;SDS011;31888;44.512;26.104;2022-12-05T10:40:40;27.83;;;14.35;;
46158;SDS011;31888;44.512;26.104;2022-12-05T10:42:47;31.10;;;16.30;;
46158;SDS011;31888;44.512;26.104;2022-12-05T10:44:54;35.28;;;14.40;;
46158;SDS011;31888;44.512;26.104;2022-12-05T10:47:01;33.17;;;13.80;;
46158;SDS011;31888;44.512;26.104;2022-12-05T10:49:07;30.92;;;14.93;;
46158;SDS011;31888;44.512;26.104;2022-12-05T10:51:16;34.70;;;15.00;;
46158;SDS011;31888;44.512;26.104;2022-12-05T10:53:24;31.73;;;15.77;;
46158;SDS011;31888;44.512;26.104;2022-12-05T10:55:31;30.45;;;14.73;;
46158;SDS011;31888;44.512;26.104;2022-12-05T10:57:38;32.45;;;14.55;;
46158;SDS011;31888;44.512;26.104;2022-12-05T10:59:44;29.60;;;14.25;;
46158;SDS011;31888;44.512;26.104;2022-12-05T11:01:51;29.58;;;14.57;;
46158;SDS011;31888;44.512;26.104;2022-12-05T11:03:59;34.63;;;14.18;;
46158;SDS011;31888;44.512;26.104;2022-12-05T11:06:16;29.65;;;13.82;;
46158;SDS011;31888;44.512;26.104;2022-12-05T11:08:27;27.85;;;13.73;;
46158;SDS011;31888;44.512;26.104;2022-12-05T11:11:01;28.70;;;13.07;;
46158;SDS011;31888;44.512;26.104;2022-12-05T11:13:13;35.53;;;15.40;;
46158;SDS011;31888;44.512;26.104;2022-12-05T11:15:19;32.53;;;13.15;;
46158;SDS011;31888;44.512;26.104;2022-12-05T11:17:29;34.08;;;14.80;;
46158;SDS011;31888;44.512;26.104;2022-12-05T11:19:35;29.17;;;14.18;;
46158;SDS011;31888;44.512;26.104;2022-12-05T11:21:42;31.45;;;14.90;;
46158;SDS011;31888;44.512;26.104;2022-12-05T11:23:46;34.20;;;15.55;;
46158;SDS011;31888;44.512;26.104;2022-12-05T11:25:51;36.47;;;16.23;;
46158;SDS011;31888;44.512;26.104;2022-12-05T11:27:56;25.83;;;12.85;;
46158;SDS011;31888;44.512;26.104;2022-12-05T11:30:04;27.80;;;13.68;;
46158;SDS011;31888;44.512;26.104;2022-12-05T11:32:21;28.58;;;13.55;;
46158;SDS011;31888;44.512;26.104;2022-12-05T11:34:29;30.05;;;14.73;;
46158;SDS011;31888;44.512;26.104;2022-12-05T11:36:39;31.92;;;15.07;;
46158;SDS011;31888;44.512;26.104;2022-12-05T11:38:56;32.47;;;13.85;;
46158;SDS011;31888;44.512;26.104;2022-12-05T11:41:08;33.03;;;13.85;;
46158;SDS011;31888;44.512;26.104;2022-12-05T11:46:20;31.80;;;14.35;;
46158;SDS011;31888;44.512;26.104;2022-12-05T11:48:37;28.15;;;13.45;;
46158;SDS011;31888;44.512;26.104;2022-12-05T11:50:58;31.25;;;15.15;;
46158;SDS011;31888;44.512;26.104;2022-12-05T11:53:37;29.67;;;14.18;;
46158;SDS011;31888;44.512;26.104;2022-12-05T11:55:52;28.13;;;14.43;;
46158;SDS011;31888;44.512;26.104;2022-12-05T11:58:11;28.38;;;13.35;;
46158;SDS011;31888;44.512;26.104;2022-12-05T12:00:36;34.78;;;15.27;;
46158;SDS011;31888;44.512;26.104;2022-12-05T12:05:31;32.25;;;15.52;;
46158;SDS011;31888;44.512;26.104;2022-12-05T12:07:44;32.40;;;15.82;;
46158;SDS011;31888;44.512;26.104;2022-12-05T12:10:03;30.02;;;14.13;;
46158;SDS011;31888;44.512;26.104;2022-12-05T12:12:16;37.45;;;15.48;;
46158;SDS011;31888;44.512;26.104;2022-12-05T12:14:28;31.85;;;15.45;;
46158;SDS011;31888;44.512;26.104;2022-12-05T12:16:40;31.88;;;14.95;;
46158;SDS011;31888;44.512;26.104;2022-12-05T12:18:55;35.17;;;15.90;;
46158;SDS011;31888;44.512;26.104;2022-12-05T12:21:22;30.40;;;15.05;;
46158;SDS011;31888;44.512;26.104;2022-12-05T12:23:42;28.73;;;15.38;;
46158;SDS011;31888;44.512;26.104;2022-12-05T12:26:08;35.35;;;16.88;;
46158;SDS011;31888;44.512;26.104;2022-12-05T12:28:22;47.00;;;24.27;;
46158;SDS011;31888;44.512;26.104;2022-12-05T12:30:40;41.60;;;19.45;;
46158;SDS011;31888;44.512;26.104;2022-12-05T12:32:56;31.83;;;15.40;;
46158;SDS011;31888;44.512;26.104;2022-12-05T12:37:37;36.17;;;16.38;;